createdAt,value
2023-02-11T00:00:00.922Z,98102.44
2023-02-11T00:05:04.862Z,98091.56
2023-02-11T00:10:09.129Z,98078.44
2023-02-11T00:15:12.291Z,98087.44
2023-02-11T00:20:15.721Z,98089.66
2023-02-11T00:25:18.687Z,98095.34
2023-02-11T00:30:21.803Z,98091.03
2023-02-11T00:35:24.913Z,98088.72
2023-02-11T00:40:28.420Z,98093.22
2023-02-11T00:45:31.517Z,98096.97
2023-02-11T00:50:35.681Z,98102.75
2023-02-11T00:55:39.344Z,98104.59
2023-02-11T01:00:42.987Z,98105.78
2023-02-11T01:05:46.315Z,98108.44
2023-02-11T01:10:56.533Z,98101.28
2023-02-11T01:16:00.148Z,98094.13
2023-02-11T01:21:03.555Z,98082.66
2023-02-11T01:26:06.900Z,98069.56
2023-02-11T01:31:10.133Z,98062.78
2023-02-11T01:36:13.452Z,98063.53
2023-02-11T01:41:16.490Z,98054.28
2023-02-11T01:46:29.086Z,98052.16
2023-02-11T01:51:39.317Z,98057.25
2023-02-11T01:56:47.158Z,98054.09
2023-02-11T02:02:00.967Z,98049.00
2023-02-11T02:07:11.277Z,98047.97
2023-02-11T02:12:14.490Z,98063.91
2023-02-11T02:17:46.481Z,98055.47
2023-02-11T02:23:14.276Z,98055.88
2023-02-11T02:28:35.226Z,98050.06
2023-02-11T02:33:53.837Z,98056.22
2023-02-11T02:39:08.532Z,98042.50
2023-02-11T02:44:12.061Z,98034.88
2023-02-11T02:49:16.770Z,98023.63
2023-02-11T02:54:35.055Z,98026.91
2023-02-11T03:00:11.419Z,98020.56
2023-02-11T03:05:45.750Z,98018.75
2023-02-11T03:10:52.846Z,98008.88
2023-02-11T03:15:58.703Z,98006.66
2023-02-11T03:21:05.682Z,98010.94
2023-02-11T03:26:39.427Z,98011.22
2023-02-11T03:32:10.041Z,98000.97
2023-02-11T03:37:29.699Z,97980.09
2023-02-11T03:42:38.410Z,97980.63
2023-02-11T03:47:47.608Z,97978.56
2023-02-11T03:52:51.894Z,97978.47
2023-02-11T03:57:55.643Z,97985.34
2023-02-11T04:02:59.349Z,97983.22
2023-02-11T04:08:03.002Z,97996.88
2023-02-11T04:13:06.261Z,97992.41
2023-02-11T04:18:09.427Z,97981.59
2023-02-11T04:23:12.485Z,97959.03
2023-02-11T04:28:15.683Z,97958.13
2023-02-11T04:33:18.803Z,97977.09
2023-02-11T04:38:21.989Z,97957.22
2023-02-11T04:43:25.018Z,97944.78
2023-02-11T04:48:28.302Z,97953.94
2023-02-11T04:53:31.496Z,97950.72
2023-02-11T04:58:35.201Z,97938.25
2023-02-11T05:03:38.529Z,97972.44
2023-02-11T05:08:41.479Z,97957.50
2023-02-11T05:13:44.516Z,97978.19
2023-02-11T05:18:47.756Z,97971.69
2023-02-11T05:23:51.004Z,97961.63
2023-02-11T05:28:54.114Z,97971.31
2023-02-11T05:33:57.320Z,97971.22
2023-02-11T05:39:00.527Z,97979.06
2023-02-11T05:44:03.767Z,97982.47
2023-02-11T05:49:07.004Z,97981.72
2023-02-11T05:54:10.162Z,97989.56
2023-02-11T05:59:16.651Z,97981.13
2023-02-11T06:04:19.844Z,97971.44
2023-02-11T06:09:23.085Z,97966.88
2023-02-11T06:14:26.095Z,97982.56
2023-02-11T06:19:29.659Z,97950.66
2023-02-11T06:24:58.523Z,97961.84
2023-02-11T06:29:56.479Z,97959.66
2023-02-11T06:34:59.798Z,97948.84
2023-02-11T06:40:02.907Z,97948.78
2023-02-11T06:45:08.453Z,97952.47
2023-02-11T06:50:14.125Z,97973.16
2023-02-11T06:55:17.511Z,97961.72
2023-02-11T07:00:20.457Z,97942.72
2023-02-11T07:05:23.685Z,97956.03
2023-02-11T07:10:27.110Z,97959.56
2023-02-11T07:15:30.313Z,97966.75
2023-02-11T07:20:33.449Z,97959.25
2023-02-11T07:25:37.067Z,97961.75
2023-02-11T07:30:40.301Z,97962.59
2023-02-11T07:35:43.280Z,97970.38
2023-02-11T07:40:46.340Z,97955.47
2023-02-11T07:45:49.771Z,97977.88
2023-02-11T07:50:53.077Z,97967.47
2023-02-11T07:55:56.202Z,97961.59
2023-02-11T08:01:04.787Z,97952.81
2023-02-11T08:06:14.033Z,97955.72
2023-02-11T08:11:28.676Z,97936.22
2023-02-11T08:16:35.268Z,97946.13
2023-02-11T08:21:39.113Z,97942.41
2023-02-11T08:26:42.828Z,97938.31
2023-02-11T08:31:47.764Z,97939.53
2023-02-11T08:36:51.349Z,97924.75
2023-02-11T08:41:55.532Z,97925.56
2023-02-11T08:46:58.642Z,97922.50
2023-02-11T08:52:02.177Z,97906.88
2023-02-11T08:57:08.174Z,97900.47
2023-02-11T09:02:15.277Z,97882.00
2023-02-11T09:07:18.474Z,97886.31
2023-02-11T09:12:21.642Z,97878.94
2023-02-11T09:17:24.871Z,97890.63
2023-02-11T09:22:28.055Z,97878.50
2023-02-11T09:27:31.214Z,97871.69
2023-02-11T09:32:35.020Z,97858.69
2023-02-11T09:37:38.296Z,97864.25
2023-02-11T09:42:46.742Z,97854.59
2023-02-11T09:47:58.463Z,97857.19
2023-02-11T09:53:23.636Z,97848.47
2023-02-11T09:58:30.118Z,97827.66
2023-02-11T10:03:55.345Z,97818.22
2023-02-11T10:09:29.240Z,97810.38
2023-02-11T10:14:53.354Z,97799.16
2023-02-11T10:20:29.691Z,97796.63
2023-02-11T10:25:39.469Z,97804.84
2023-02-11T10:30:53.418Z,97775.84
2023-02-11T10:35:56.910Z,97761.09
2023-02-11T10:41:00.167Z,97770.06
2023-02-11T10:46:05.893Z,97754.44
2023-02-11T10:51:23.571Z,97761.63
2023-02-11T10:56:28.317Z,97763.28
2023-02-11T11:01:51.803Z,97767.66
2023-02-11T11:06:55.698Z,97784.66
2023-02-11T11:11:58.957Z,97791.84
2023-02-11T11:17:02.220Z,97782.13
2023-02-11T11:22:05.909Z,97775.06
2023-02-11T11:27:19.228Z,97758.44
2023-02-11T11:32:30.079Z,97764.59
2023-02-11T11:37:37.074Z,97783.72
2023-02-11T11:42:40.516Z,97762.25
2023-02-11T11:47:49.194Z,97766.50
2023-02-11T11:53:04.683Z,97766.44
2023-02-11T11:58:18.962Z,97753.63
2023-02-11T12:03:37.609Z,97749.78
2023-02-11T12:09:04.812Z,97754.97
2023-02-11T12:14:32.227Z,97761.53
2023-02-11T12:20:10.545Z,97774.16
2023-02-11T12:25:39.314Z,97769.63
2023-02-11T12:30:53.173Z,97762.66
2023-02-11T12:36:26.180Z,97767.19
2023-02-11T12:41:50.684Z,97759.78
2023-02-11T12:47:09.666Z,97759.78
2023-02-11T12:52:35.684Z,97747.13
2023-02-11T12:57:43.754Z,97763.31
2023-02-11T13:03:08.385Z,97763.13
2023-02-11T13:08:35.612Z,97755.03
2023-02-11T13:13:57.736Z,97752.94
2023-02-11T13:19:13.121Z,97758.66
2023-02-11T13:24:40.008Z,97763.94
2023-02-11T13:30:18.491Z,97775.72
2023-02-11T13:35:35.250Z,97776.06
2023-02-11T13:40:39.906Z,97801.38
2023-02-11T13:45:46.882Z,97796.38
2023-02-11T13:50:54.559Z,97802.34
2023-02-11T13:56:23.607Z,97812.03
2023-02-11T14:02:20.415Z,97812.03
2023-02-11T14:07:32.089Z,97809.78
2023-02-11T14:12:35.620Z,97817.31
2023-02-11T14:17:38.751Z,97817.59
2023-02-11T14:22:49.762Z,97816.47
2023-02-11T14:28:00.353Z,97828.53
2023-02-11T14:33:24.467Z,97831.97
2023-02-11T14:38:40.031Z,97833.03
2023-02-11T14:43:51.374Z,97838.81
2023-02-11T14:48:58.709Z,97839.88
2023-02-11T14:54:17.619Z,97847.50
2023-02-11T14:59:23.016Z,97857.44
2023-02-11T15:04:34.082Z,97876.03
2023-02-11T15:09:48.171Z,97874.22
2023-02-11T15:14:54.886Z,97876.16
2023-02-11T15:20:01.948Z,97881.97
2023-02-11T15:25:12.419Z,97880.56
2023-02-11T15:30:24.356Z,97889.25
2023-02-11T15:35:37.781Z,97895.88
2023-02-11T15:40:40.954Z,97908.22
2023-02-11T15:45:59.936Z,97901.06
2023-02-11T15:51:12.736Z,97914.44
2023-02-11T15:56:26.172Z,97914.44
2023-02-11T16:01:35.342Z,97919.81
2023-02-11T16:06:42.836Z,97913.44
2023-02-11T16:11:48.666Z,97924.13
2023-02-11T16:16:55.473Z,97927.41
2023-02-11T16:22:01.365Z,97937.88
2023-02-11T16:27:16.878Z,97947.38
2023-02-11T16:32:25.831Z,97952.06
2023-02-11T16:37:29.003Z,97950.03
2023-02-11T16:42:32.087Z,97958.22
2023-02-11T16:47:35.971Z,97961.09
2023-02-11T16:52:39.267Z,97965.84
2023-02-11T16:57:42.375Z,97971.19
2023-02-11T17:02:45.980Z,97975.28
2023-02-11T17:07:50.130Z,97976.50
2023-02-11T17:12:53.332Z,97975.88
2023-02-11T17:17:56.510Z,97984.31
2023-02-11T17:22:59.742Z,97982.22
2023-02-11T17:28:04.063Z,97984.69
2023-02-11T17:33:07.547Z,97989.84
2023-02-11T17:38:11.299Z,97983.25
2023-02-11T17:43:14.385Z,97980.38
2023-02-11T17:48:17.561Z,97979.16
2023-02-11T17:53:20.826Z,97985.66
2023-02-11T17:58:24.141Z,97991.81
2023-02-11T18:03:27.269Z,97995.72
2023-02-11T18:08:30.944Z,97987.72
2023-02-11T18:13:34.155Z,97979.72
2023-02-11T18:18:37.371Z,97986.25
2023-02-11T18:23:42.285Z,97979.72
2023-02-11T18:28:46.089Z,97983.78
2023-02-11T18:33:50.215Z,97978.88
2023-02-11T18:38:53.691Z,97976.81
2023-02-11T18:43:58.458Z,97984.41
2023-02-11T18:49:01.617Z,97976.41
2023-02-11T18:54:04.739Z,97973.13
2023-02-11T18:59:07.850Z,97982.16
2023-02-11T19:04:10.938Z,97985.88
2023-02-11T19:09:17.525Z,97979.88
2023-02-11T19:14:25.961Z,97984.41
2023-02-11T19:19:31.467Z,97973.53
2023-02-11T19:24:35.709Z,97981.31
2023-02-11T19:29:39.137Z,97980.66
2023-02-11T19:34:42.554Z,97979.44
2023-02-11T19:39:45.571Z,97985.59
2023-02-11T19:44:48.549Z,97988.06
2023-02-11T19:49:51.632Z,97989.09
2023-02-11T19:54:54.924Z,97989.34
2023-02-11T19:59:58.418Z,97990.97
2023-02-11T20:05:01.634Z,97992.59
2023-02-11T20:10:06.715Z,97987.03
2023-02-11T20:15:10.340Z,97988.47
2023-02-11T20:20:13.545Z,97991.97
2023-02-11T20:25:16.724Z,97991.75
2023-02-11T20:30:20.005Z,97984.78
2023-02-11T20:35:23.088Z,97993.00
2023-02-11T20:40:26.310Z,97988.47
2023-02-11T20:45:29.535Z,97975.50
2023-02-11T20:50:33.651Z,97991.72
2023-02-11T20:55:38.506Z,97986.16
2023-02-11T21:00:41.716Z,97993.38
2023-02-11T21:05:44.889Z,97987.25
2023-02-11T21:10:48.768Z,97983.34
2023-02-11T21:15:56.684Z,97982.53
2023-02-11T21:21:00.680Z,97991.56
2023-02-11T21:26:04.187Z,97989.31
2023-02-11T21:31:07.322Z,97989.09
2023-02-11T21:36:10.689Z,97982.31
2023-02-11T21:41:13.911Z,97994.66
2023-02-11T21:46:18.975Z,97990.16
2023-02-11T21:51:24.601Z,97988.53
2023-02-11T21:56:29.255Z,97978.88
2023-02-11T22:01:34.396Z,97969.63
2023-02-11T22:06:37.622Z,97971.28
2023-02-11T22:11:40.794Z,97978.06
2023-02-11T22:16:47.638Z,97977.63
2023-02-11T22:21:50.716Z,97975.78
2023-02-11T22:26:53.892Z,97967.56
2023-02-11T22:31:57.242Z,97963.06
2023-02-11T22:37:02.328Z,97957.34
2023-02-11T22:42:06.089Z,97963.91
2023-02-11T22:47:09.215Z,97951.41
2023-02-11T22:52:12.358Z,97946.06
2023-02-11T22:57:15.509Z,97948.31
2023-02-11T23:02:18.859Z,97947.06
2023-02-11T23:07:21.975Z,97950.38
2023-02-11T23:12:25.179Z,97948.31
2023-02-11T23:17:28.225Z,97947.13
2023-02-11T23:22:31.283Z,97942.19
2023-02-11T23:27:34.476Z,97946.50
2023-02-11T23:32:40.432Z,97950.22
2023-02-11T23:37:43.548Z,97952.88
2023-02-11T23:42:47.253Z,97967.06
2023-02-11T23:47:50.350Z,97992.31
2023-02-11T23:52:53.493Z,97994.78
2023-02-11T23:57:56.716Z,98000.09
